sensor_id;sensor_type;location;lat;lon;timestamp;P1;durP1;ratioP1;P2;durP2;ratioP2
50350;SDS011;36250;48.740;22.174;2022-12-18T00:01:00;54.40;;;25.42;;
50350;SDS011;36250;48.740;22.174;2022-12-18T00:03:27;67.43;;;29.13;;
50350;SDS011;36250;48.740;22.174;2022-12-18T00:05:53;52.53;;;24.48;;
50350;SDS011;36250;48.740;22.174;2022-12-18T00:08:18;68.70;;;31.50;;
50350;SDS011;36250;48.740;22.174;2022-12-18T00:10:44;69.85;;;30.70;;
50350;SDS011;36250;48.740;22.174;2022-12-18T00:13:10;70.63;;;32.03;;
50350;SDS011;36250;48.740;22.174;2022-12-18T00:15:37;79.40;;;35.67;;
50350;SDS011;36250;48.740;22.174;2022-12-18T00:18:04;89.10;;;35.10;;
50350;SDS011;36250;48.740;22.174;2022-12-18T00:20:29;79.15;;;34.15;;
50350;SDS011;36250;48.740;22.174;2022-12-18T00:22:55;83.60;;;37.28;;
50350;SDS011;36250;48.740;22.174;2022-12-18T00:25:21;78.15;;;33.78;;
50350;SDS011;36250;48.740;22.174;2022-12-18T00:27:47;81.20;;;35.95;;
50350;SDS011;36250;48.740;22.174;2022-12-18T00:30:12;85.72;;;37.25;;
50350;SDS011;36250;48.740;22.174;2022-12-18T00:32:37;77.75;;;35.50;;
50350;SDS011;36250;48.740;22.174;2022-12-18T00:35:03;71.07;;;33.67;;
50350;SDS011;36250;48.740;22.174;2022-12-18T00:37:29;104.40;;;44.17;;
50350;SDS011;36250;48.740;22.174;2022-12-18T00:39:55;87.32;;;36.83;;
50350;SDS011;36250;48.740;22.174;2022-12-18T00:42:20;87.03;;;36.92;;
50350;SDS011;36250;48.740;22.174;2022-12-18T00:45:04;80.90;;;35.03;;
50350;SDS011;36250;48.740;22.174;2022-12-18T00:47:30;70.15;;;30.70;;
50350;SDS011;36250;48.740;22.174;2022-12-18T00:49:55;56.65;;;27.00;;
50350;SDS011;36250;48.740;22.174;2022-12-18T00:52:20;60.10;;;25.50;;
50350;SDS011;36250;48.740;22.174;2022-12-18T00:54:46;62.35;;;26.48;;
50350;SDS011;36250;48.740;22.174;2022-12-18T00:57:11;55.65;;;25.30;;
50350;SDS011;36250;48.740;22.174;2022-12-18T00:59:36;59.40;;;26.42;;
50350;SDS011;36250;48.740;22.174;2022-12-18T01:02:02;65.30;;;27.15;;
50350;SDS011;36250;48.740;22.174;2022-12-18T01:04:27;66.97;;;30.42;;
50350;SDS011;36250;48.740;22.174;2022-12-18T01:06:53;64.65;;;28.15;;
50350;SDS011;36250;48.740;22.174;2022-12-18T01:09:18;72.88;;;32.03;;
50350;SDS011;36250;48.740;22.174;2022-12-18T01:11:43;60.45;;;28.20;;
50350;SDS011;36250;48.740;22.174;2022-12-18T01:14:09;64.28;;;30.60;;
50350;SDS011;36250;48.740;22.174;2022-12-18T01:16:34;66.68;;;28.17;;
50350;SDS011;36250;48.740;22.174;2022-12-18T01:19:00;66.22;;;29.55;;
50350;SDS011;36250;48.740;22.174;2022-12-18T01:21:25;64.97;;;29.48;;
50350;SDS011;36250;48.740;22.174;2022-12-18T01:23:51;73.90;;;28.70;;
50350;SDS011;36250;48.740;22.174;2022-12-18T01:26:18;64.60;;;27.70;;
50350;SDS011;36250;48.740;22.174;2022-12-18T01:28:44;78.05;;;30.95;;
50350;SDS011;36250;48.740;22.174;2022-12-18T01:31:18;69.00;;;28.95;;
50350;SDS011;36250;48.740;22.174;2022-12-18T01:33:45;71.50;;;30.20;;
50350;SDS011;36250;48.740;22.174;2022-12-18T01:36:19;73.57;;;30.15;;
50350;SDS011;36250;48.740;22.174;2022-12-18T01:38:49;72.95;;;31.00;;
50350;SDS011;36250;48.740;22.174;2022-12-18T01:41:16;68.68;;;27.05;;
50350;SDS011;36250;48.740;22.174;2022-12-18T01:43:48;67.30;;;26.90;;
50350;SDS011;36250;48.740;22.174;2022-12-18T01:46:22;64.28;;;26.92;;
50350;SDS011;36250;48.740;22.174;2022-12-18T01:48:49;61.13;;;28.45;;
50350;SDS011;36250;48.740;22.174;2022-12-18T01:51:18;78.45;;;30.77;;
50350;SDS011;36250;48.740;22.174;2022-12-18T01:53:44;81.35;;;32.67;;
50350;SDS011;36250;48.740;22.174;2022-12-18T01:56:15;85.15;;;33.75;;
50350;SDS011;36250;48.740;22.174;2022-12-18T02:01:13;83.80;;;33.35;;
50350;SDS011;36250;48.740;22.174;2022-12-18T02:03:42;77.80;;;33.42;;
50350;SDS011;36250;48.740;22.174;2022-12-18T02:06:16;86.70;;;33.90;;
50350;SDS011;36250;48.740;22.174;2022-12-18T02:08:53;90.47;;;35.92;;
50350;SDS011;36250;48.740;22.174;2022-12-18T02:16:59;88.95;;;32.67;;
50350;SDS011;36250;48.740;22.174;2022-12-18T02:22:37;80.85;;;33.22;;
50350;SDS011;36250;48.740;22.174;2022-12-18T02:27:52;91.30;;;35.90;;
50350;SDS011;36250;48.740;22.174;2022-12-18T02:30:21;89.80;;;33.72;;
50350;SDS011;36250;48.740;22.174;2022-12-18T02:32:51;92.45;;;38.75;;
50350;SDS011;36250;48.740;22.174;2022-12-18T02:35:22;96.00;;;37.28;;
50350;SDS011;36250;48.740;22.174;2022-12-18T02:37:50;103.97;;;37.95;;
50350;SDS011;36250;48.740;22.174;2022-12-18T02:40:19;98.93;;;36.55;;
50350;SDS011;36250;48.740;22.174;2022-12-18T02:42:46;95.07;;;36.60;;
50350;SDS011;36250;48.740;22.174;2022-12-18T02:45:12;93.88;;;35.90;;
50350;SDS011;36250;48.740;22.174;2022-12-18T02:47:38;90.45;;;35.60;;
50350;SDS011;36250;48.740;22.174;2022-12-18T02:55:58;87.80;;;36.45;;
50350;SDS011;36250;48.740;22.174;2022-12-18T03:06:26;105.47;;;43.25;;
50350;SDS011;36250;48.740;22.174;2022-12-18T03:08:58;97.13;;;38.23;;
50350;SDS011;36250;48.740;22.174;2022-12-18T03:11:28;102.70;;;41.00;;
50350;SDS011;36250;48.740;22.174;2022-12-18T03:14:16;107.53;;;43.67;;
50350;SDS011;36250;48.740;22.174;2022-12-18T03:16:45;181.57;;;77.95;;
50350;SDS011;36250;48.740;22.174;2022-12-18T03:19:16;136.20;;;57.75;;
50350;SDS011;36250;48.740;22.174;2022-12-18T03:21:47;213.82;;;89.60;;
50350;SDS011;36250;48.740;22.174;2022-12-18T03:24:16;100.72;;;40.25;;
50350;SDS011;36250;48.740;22.174;2022-12-18T03:26:45;98.75;;;35.92;;
50350;SDS011;36250;48.740;22.174;2022-12-18T03:29:22;98.68;;;36.28;;
50350;SDS011;36250;48.740;22.174;2022-12-18T03:31:57;91.90;;;34.38;;
50350;SDS011;36250;48.740;22.174;2022-12-18T03:34:30;102.25;;;38.47;;
50350;SDS011;36250;48.740;22.174;2022-12-18T03:37:01;97.35;;;39.28;;
50350;SDS011;36250;48.740;22.174;2022-12-18T03:39:28;104.95;;;39.95;;
50350;SDS011;36250;48.740;22.174;2022-12-18T03:41:55;100.45;;;37.90;;
50350;SDS011;36250;48.740;22.174;2022-12-18T03:44:41;90.25;;;34.30;;
50350;SDS011;36250;48.740;22.174;2022-12-18T03:47:33;102.93;;;33.80;;
50350;SDS011;36250;48.740;22.174;2022-12-18T03:53:24;88.97;;;33.50;;
50350;SDS011;36250;48.740;22.174;2022-12-18T03:55:57;72.00;;;28.25;;
50350;SDS011;36250;48.740;22.174;2022-12-18T03:58:25;75.97;;;25.17;;
50350;SDS011;36250;48.740;22.174;2022-12-18T04:00:53;78.90;;;26.25;;
50350;SDS011;36250;48.740;22.174;2022-12-18T04:03:24;73.22;;;26.85;;
50350;SDS011;36250;48.740;22.174;2022-12-18T04:05:51;67.40;;;24.35;;
50350;SDS011;36250;48.740;22.174;2022-12-18T04:08:19;71.00;;;24.83;;
50350;SDS011;36250;48.740;22.174;2022-12-18T04:10:46;77.35;;;27.33;;
50350;SDS011;36250;48.740;22.174;2022-12-18T04:13:12;67.90;;;23.50;;
50350;SDS011;36250;48.740;22.174;2022-12-18T04:15:37;59.85;;;23.45;;
50350;SDS011;36250;48.740;22.174;2022-12-18T04:18:03;70.38;;;24.13;;
50350;SDS011;36250;48.740;22.174;2022-12-18T04:20:29;70.20;;;25.17;;
50350;SDS011;36250;48.740;22.174;2022-12-18T04:22:54;59.83;;;24.58;;
50350;SDS011;36250;48.740;22.174;2022-12-18T04:25:20;60.90;;;22.13;;
50350;SDS011;36250;48.740;22.174;2022-12-18T04:27:45;66.32;;;22.38;;
50350;SDS011;36250;48.740;22.174;2022-12-18T04:30:10;66.93;;;26.33;;
50350;SDS011;36250;48.740;22.174;2022-12-18T04:32:36;74.95;;;27.58;;
50350;SDS011;36250;48.740;22.174;2022-12-18T04:35:02;87.30;;;39.30;;
50350;SDS011;36250;48.740;22.174;2022-12-18T04:37:29;86.70;;;34.70;;
50350;SDS011;36250;48.740;22.174;2022-12-18T04:39:54;79.10;;;30.45;;
50350;SDS011;36250;48.740;22.174;2022-12-18T04:42:20;71.93;;;27.13;;
50350;SDS011;36250;48.740;22.174;2022-12-18T04:44:45;80.57;;;30.83;;
50350;SDS011;36250;48.740;22.174;2022-12-18T04:47:10;90.18;;;36.22;;
50350;SDS011;36250;48.740;22.174;2022-12-18T04:49:36;66.50;;;26.33;;
50350;SDS011;36250;48.740;22.174;2022-12-18T04:52:01;96.45;;;33.80;;
50350;SDS011;36250;48.740;22.174;2022-12-18T04:54:26;77.10;;;28.73;;
50350;SDS011;36250;48.740;22.174;2022-12-18T04:56:52;73.65;;;27.70;;
50350;SDS011;36250;48.740;22.174;2022-12-18T04:59:17;62.80;;;24.08;;
50350;SDS011;36250;48.740;22.174;2022-12-18T05:01:42;74.00;;;27.15;;
50350;SDS011;36250;48.740;22.174;2022-12-18T05:04:08;73.05;;;25.88;;
50350;SDS011;36250;48.740;22.174;2022-12-18T05:06:33;64.10;;;23.42;;
50350;SDS011;36250;48.740;22.174;2022-12-18T05:08:58;66.07;;;26.60;;
50350;SDS011;36250;48.740;22.174;2022-12-18T05:11:24;78.75;;;27.95;;
50350;SDS011;36250;48.740;22.174;2022-12-18T05:13:49;65.22;;;25.17;;
50350;SDS011;36250;48.740;22.174;2022-12-18T05:16:14;69.07;;;25.42;;
50350;SDS011;36250;48.740;22.174;2022-12-18T05:18:40;73.97;;;27.45;;
50350;SDS011;36250;48.740;22.174;2022-12-18T05:21:05;74.53;;;27.20;;
50350;SDS011;36250;48.740;22.174;2022-12-18T05:23:31;64.70;;;22.95;;
50350;SDS011;36250;48.740;22.174;2022-12-18T05:25:57;73.75;;;26.50;;
50350;SDS011;36250;48.740;22.174;2022-12-18T05:28:25;77.63;;;27.73;;
50350;SDS011;36250;48.740;22.174;2022-12-18T05:30:52;70.10;;;28.45;;
50350;SDS011;36250;48.740;22.174;2022-12-18T05:33:21;74.47;;;26.80;;
50350;SDS011;36250;48.740;22.174;2022-12-18T05:35:55;89.97;;;33.63;;
50350;SDS011;36250;48.740;22.174;2022-12-18T05:38:22;82.60;;;31.98;;
50350;SDS011;36250;48.740;22.174;2022-12-18T05:40:49;74.70;;;27.23;;
50350;SDS011;36250;48.740;22.174;2022-12-18T05:43:15;74.63;;;27.70;;
50350;SDS011;36250;48.740;22.174;2022-12-18T05:45:41;71.00;;;27.33;;
50350;SDS011;36250;48.740;22.174;2022-12-18T05:48:06;75.45;;;25.58;;
50350;SDS011;36250;48.740;22.174;2022-12-18T05:50:39;79.32;;;28.80;;
50350;SDS011;36250;48.740;22.174;2022-12-18T05:53:06;77.65;;;31.83;;
50350;SDS011;36250;48.740;22.174;2022-12-18T05:55:33;69.18;;;24.05;;
50350;SDS011;36250;48.740;22.174;2022-12-18T05:57:59;77.53;;;27.63;;
50350;SDS011;36250;48.740;22.174;2022-12-18T06:00:25;78.57;;;27.15;;
50350;SDS011;36250;48.740;22.174;2022-12-18T06:02:50;88.35;;;32.38;;
50350;SDS011;36250;48.740;22.174;2022-12-18T06:05:15;96.75;;;33.17;;
50350;SDS011;36250;48.740;22.174;2022-12-18T06:07:41;83.53;;;31.15;;
50350;SDS011;36250;48.740;22.174;2022-12-18T06:10:06;89.75;;;31.15;;
50350;SDS011;36250;48.740;22.174;2022-12-18T06:12:31;84.43;;;30.27;;
50350;SDS011;36250;48.740;22.174;2022-12-18T06:14:58;75.47;;;29.15;;
50350;SDS011;36250;48.740;22.174;2022-12-18T06:17:27;70.75;;;26.20;;
50350;SDS011;36250;48.740;22.174;2022-12-18T06:19:53;67.75;;;27.75;;
50350;SDS011;36250;48.740;22.174;2022-12-18T06:22:19;66.90;;;26.92;;
50350;SDS011;36250;48.740;22.174;2022-12-18T06:24:44;70.22;;;25.73;;
50350;SDS011;36250;48.740;22.174;2022-12-18T06:27:10;63.58;;;24.70;;
50350;SDS011;36250;48.740;22.174;2022-12-18T06:29:35;73.97;;;30.63;;
50350;SDS011;36250;48.740;22.174;2022-12-18T06:32:00;110.75;;;36.88;;
50350;SDS011;36250;48.740;22.174;2022-12-18T06:34:26;100.50;;;37.38;;
50350;SDS011;36250;48.740;22.174;2022-12-18T06:36:51;94.72;;;35.97;;
50350;SDS011;36250;48.740;22.174;2022-12-18T06:39:16;98.85;;;39.60;;
50350;SDS011;36250;48.740;22.174;2022-12-18T06:41:41;81.13;;;29.15;;
50350;SDS011;36250;48.740;22.174;2022-12-18T06:44:07;70.35;;;25.88;;
50350;SDS011;36250;48.740;22.174;2022-12-18T06:46:32;88.38;;;29.23;;
50350;SDS011;36250;48.740;22.174;2022-12-18T06:48:57;94.43;;;35.88;;
50350;SDS011;36250;48.740;22.174;2022-12-18T06:51:23;105.75;;;38.80;;
50350;SDS011;36250;48.740;22.174;2022-12-18T06:53:49;107.07;;;40.53;;
50350;SDS011;36250;48.740;22.174;2022-12-18T06:56:15;115.78;;;46.25;;
50350;SDS011;36250;48.740;22.174;2022-12-18T06:58:41;109.22;;;42.75;;
50350;SDS011;36250;48.740;22.174;2022-12-18T07:01:08;97.00;;;37.10;;
50350;SDS011;36250;48.740;22.174;2022-12-18T07:03:35;89.40;;;32.95;;
50350;SDS011;36250;48.740;22.174;2022-12-18T07:06:01;109.13;;;37.58;;
50350;SDS011;36250;48.740;22.174;2022-12-18T07:08:26;91.25;;;33.05;;
50350;SDS011;36250;48.740;22.174;2022-12-18T07:10:54;75.47;;;29.25;;
50350;SDS011;36250;48.740;22.174;2022-12-18T07:13:19;78.07;;;28.98;;
50350;SDS011;36250;48.740;22.174;2022-12-18T07:15:44;85.88;;;31.88;;
50350;SDS011;36250;48.740;22.174;2022-12-18T07:18:10;104.57;;;35.38;;
50350;SDS011;36250;48.740;22.174;2022-12-18T07:20:35;98.25;;;36.85;;
50350;SDS011;36250;48.740;22.174;2022-12-18T07:23:04;95.53;;;35.22;;
50350;SDS011;36250;48.740;22.174;2022-12-18T07:25:33;96.18;;;35.97;;
50350;SDS011;36250;48.740;22.174;2022-12-18T07:28:02;75.70;;;27.87;;
50350;SDS011;36250;48.740;22.174;2022-12-18T07:30:28;97.30;;;39.35;;
50350;SDS011;36250;48.740;22.174;2022-12-18T07:32:53;82.90;;;31.73;;
50350;SDS011;36250;48.740;22.174;2022-12-18T07:35:18;93.13;;;41.38;;
50350;SDS011;36250;48.740;22.174;2022-12-18T07:37:43;81.22;;;34.97;;
50350;SDS011;36250;48.740;22.174;2022-12-18T07:40:09;66.93;;;25.00;;
50350;SDS011;36250;48.740;22.174;2022-12-18T07:42:35;70.05;;;28.55;;
50350;SDS011;36250;48.740;22.174;2022-12-18T07:45:01;76.57;;;28.05;;
50350;SDS011;36250;48.740;22.174;2022-12-18T07:47:28;67.95;;;25.40;;
50350;SDS011;36250;48.740;22.174;2022-12-18T07:49:53;71.70;;;29.20;;
50350;SDS011;36250;48.740;22.174;2022-12-18T07:52:19;65.85;;;24.13;;
50350;SDS011;36250;48.740;22.174;2022-12-18T07:54:44;65.32;;;23.55;;
50350;SDS011;36250;48.740;22.174;2022-12-18T07:57:10;66.68;;;24.30;;
50350;SDS011;36250;48.740;22.174;2022-12-18T07:59:36;65.18;;;24.20;;
50350;SDS011;36250;48.740;22.174;2022-12-18T08:02:01;69.68;;;25.70;;
50350;SDS011;36250;48.740;22.174;2022-12-18T08:04:26;60.28;;;22.20;;
50350;SDS011;36250;48.740;22.174;2022-12-18T08:06:52;68.38;;;24.42;;
50350;SDS011;36250;48.740;22.174;2022-12-18T08:09:17;60.35;;;23.45;;
50350;SDS011;36250;48.740;22.174;2022-12-18T08:11:43;65.80;;;26.52;;
50350;SDS011;36250;48.740;22.174;2022-12-18T08:14:08;64.10;;;24.38;;
50350;SDS011;36250;48.740;22.174;2022-12-18T08:16:34;66.15;;;22.75;;
50350;SDS011;36250;48.740;22.174;2022-12-18T08:19:00;67.95;;;24.48;;
50350;SDS011;36250;48.740;22.174;2022-12-18T08:21:27;69.57;;;22.00;;
50350;SDS011;36250;48.740;22.174;2022-12-18T08:23:54;60.88;;;24.73;;
50350;SDS011;36250;48.740;22.174;2022-12-18T08:26:22;61.20;;;22.45;;
50350;SDS011;36250;48.740;22.174;2022-12-18T08:28:49;66.82;;;22.23;;
50350;SDS011;36250;48.740;22.174;2022-12-18T08:31:18;56.28;;;20.85;;
50350;SDS011;36250;48.740;22.174;2022-12-18T08:33:43;54.95;;;20.38;;
50350;SDS011;36250;48.740;22.174;2022-12-18T08:36:09;60.28;;;23.15;;
50350;SDS011;36250;48.740;22.174;2022-12-18T08:38:35;42.70;;;18.45;;
50350;SDS011;36250;48.740;22.174;2022-12-18T08:41:01;59.70;;;21.23;;
50350;SDS011;36250;48.740;22.174;2022-12-18T08:43:30;59.13;;;20.15;;
50350;SDS011;36250;48.740;22.174;2022-12-18T08:46:14;56.35;;;21.60;;
50350;SDS011;36250;48.740;22.174;2022-12-18T08:48:39;63.55;;;23.33;;
50350;SDS011;36250;48.740;22.174;2022-12-18T08:51:04;52.38;;;20.08;;
50350;SDS011;36250;48.740;22.174;2022-12-18T08:53:30;56.30;;;21.35;;
50350;SDS011;36250;48.740;22.174;2022-12-18T08:55:58;54.10;;;22.08;;
50350;SDS011;36250;48.740;22.174;2022-12-18T08:58:24;56.97;;;23.17;;
50350;SDS011;36250;48.740;22.174;2022-12-18T09:00:49;63.33;;;25.15;;
50350;SDS011;36250;48.740;22.174;2022-12-18T09:03:15;52.50;;;21.30;;
50350;SDS011;36250;48.740;22.174;2022-12-18T09:05:42;50.97;;;20.60;;
50350;SDS011;36250;48.740;22.174;2022-12-18T09:08:08;59.15;;;24.52;;
50350;SDS011;36250;48.740;22.174;2022-12-18T09:10:34;57.38;;;23.70;;
50350;SDS011;36250;48.740;22.174;2022-12-18T09:13:05;61.25;;;25.27;;
50350;SDS011;36250;48.740;22.174;2022-12-18T09:15:31;59.80;;;24.27;;
50350;SDS011;36250;48.740;22.174;2022-12-18T09:17:56;54.13;;;23.25;;
50350;SDS011;36250;48.740;22.174;2022-12-18T09:20:21;60.08;;;23.13;;
50350;SDS011;36250;48.740;22.174;2022-12-18T09:22:46;61.33;;;23.17;;
50350;SDS011;36250;48.740;22.174;2022-12-18T09:25:12;53.03;;;20.85;;
50350;SDS011;36250;48.740;22.174;2022-12-18T09:27:37;62.97;;;24.33;;
50350;SDS011;36250;48.740;22.174;2022-12-18T09:30:02;57.03;;;24.80;;
50350;SDS011;36250;48.740;22.174;2022-12-18T09:32:29;52.50;;;23.02;;
50350;SDS011;36250;48.740;22.174;2022-12-18T09:34:54;57.78;;;22.98;;
50350;SDS011;36250;48.740;22.174;2022-12-18T09:37:19;59.80;;;22.75;;
50350;SDS011;36250;48.740;22.174;2022-12-18T09:39:45;52.25;;;19.33;;
50350;SDS011;36250;48.740;22.174;2022-12-18T09:42:18;56.83;;;22.85;;
50350;SDS011;36250;48.740;22.174;2022-12-18T09:44:55;51.33;;;21.40;;
50350;SDS011;36250;48.740;22.174;2022-12-18T09:47:25;54.28;;;21.23;;
50350;SDS011;36250;48.740;22.174;2022-12-18T09:49:59;65.88;;;26.02;;
50350;SDS011;36250;48.740;22.174;2022-12-18T09:55:00;60.83;;;26.98;;
50350;SDS011;36250;48.740;22.174;2022-12-18T09:57:30;57.40;;;23.88;;
50350;SDS011;36250;48.740;22.174;2022-12-18T09:59:59;47.10;;;18.80;;
50350;SDS011;36250;48.740;22.174;2022-12-18T10:02:30;45.88;;;19.45;;
50350;SDS011;36250;48.740;22.174;2022-12-18T10:05:05;58.25;;;19.95;;
50350;SDS011;36250;48.740;22.174;2022-12-18T10:10:31;47.30;;;19.00;;
50350;SDS011;36250;48.740;22.174;2022-12-18T10:16:03;49.38;;;19.60;;
50350;SDS011;36250;48.740;22.174;2022-12-18T10:21:21;46.33;;;18.23;;
50350;SDS011;36250;48.740;22.174;2022-12-18T10:26:22;45.80;;;20.67;;
50350;SDS011;36250;48.740;22.174;2022-12-18T10:28:49;48.60;;;20.13;;
50350;SDS011;36250;48.740;22.174;2022-12-18T10:31:17;48.08;;;20.55;;
50350;SDS011;36250;48.740;22.174;2022-12-18T10:33:44;48.35;;;20.23;;
50350;SDS011;36250;48.740;22.174;2022-12-18T10:36:10;54.28;;;21.90;;
50350;SDS011;36250;48.740;22.174;2022-12-18T10:38:35;48.33;;;20.45;;
50350;SDS011;36250;48.740;22.174;2022-12-18T10:47:01;62.00;;;21.60;;
50350;SDS011;36250;48.740;22.174;2022-12-18T10:49:30;44.47;;;18.95;;
50350;SDS011;36250;48.740;22.174;2022-12-18T10:54:50;45.72;;;18.73;;
50350;SDS011;36250;48.740;22.174;2022-12-18T10:57:37;50.88;;;19.42;;
50350;SDS011;36250;48.740;22.174;2022-12-18T11:02:46;51.22;;;21.70;;
50350;SDS011;36250;48.740;22.174;2022-12-18T11:05:28;50.20;;;20.25;;
50350;SDS011;36250;48.740;22.174;2022-12-18T11:07:55;41.70;;;18.60;;
50350;SDS011;36250;48.740;22.174;2022-12-18T11:10:23;42.30;;;18.98;;
50350;SDS011;36250;48.740;22.174;2022-12-18T11:12:53;44.20;;;20.97;;
50350;SDS011;36250;48.740;22.174;2022-12-18T11:15:20;50.13;;;19.95;;
50350;SDS011;36250;48.740;22.174;2022-12-18T11:17:49;45.92;;;18.83;;
50350;SDS011;36250;48.740;22.174;2022-12-18T11:20:20;48.08;;;21.02;;
50350;SDS011;36250;48.740;22.174;2022-12-18T11:22:56;46.67;;;20.23;;
50350;SDS011;36250;48.740;22.174;2022-12-18T11:25:23;45.10;;;20.60;;
50350;SDS011;36250;48.740;22.174;2022-12-18T11:27:56;58.45;;;24.10;;
50350;SDS011;36250;48.740;22.174;2022-12-18T11:30:33;68.80;;;29.52;;
50350;SDS011;36250;48.740;22.174;2022-12-18T11:33:19;58.42;;;26.02;;
50350;SDS011;36250;48.740;22.174;2022-12-18T11:38:28;44.65;;;20.10;;
50350;SDS011;36250;48.740;22.174;2022-12-18T11:43:41;60.67;;;27.08;;
50350;SDS011;36250;48.740;22.174;2022-12-18T11:46:11;51.45;;;26.52;;
50350;SDS011;36250;48.740;22.174;2022-12-18T11:48:44;61.55;;;29.27;;
50350;SDS011;36250;48.740;22.174;2022-12-18T11:51:16;51.47;;;23.95;;
50350;SDS011;36250;48.740;22.174;2022-12-18T11:54:12;51.70;;;24.92;;
50350;SDS011;36250;48.740;22.174;2022-12-18T11:56:46;50.55;;;22.52;;
50350;SDS011;36250;48.740;22.174;2022-12-18T11:59:51;44.38;;;20.35;;
50350;SDS011;36250;48.740;22.174;2022-12-18T12:02:36;46.33;;;21.45;;
50350;SDS011;36250;48.740;22.174;2022-12-18T12:05:16;47.13;;;22.10;;
50350;SDS011;36250;48.740;22.174;2022-12-18T12:13:00;58.33;;;28.88;;
50350;SDS011;36250;48.740;22.174;2022-12-18T12:15:48;47.92;;;23.67;;
50350;SDS011;36250;48.740;22.174;2022-12-18T12:24:01;98.60;;;41.05;;
50350;SDS011;36250;48.740;22.174;2022-12-18T12:32:00;48.65;;;22.13;;
50350;SDS011;36250;48.740;22.174;2022-12-18T12:34:33;43.33;;;20.25;;
50350;SDS011;36250;48.740;22.174;2022-12-18T12:40:19;47.47;;;20.45;;
50350;SDS011;36250;48.740;22.174;2022-12-18T12:42:51;45.42;;;21.17;;
50350;SDS011;36250;48.740;22.174;2022-12-18T12:45:48;41.88;;;20.98;;
50350;SDS011;36250;48.740;22.174;2022-12-18T12:51:21;43.65;;;19.33;;
50350;SDS011;36250;48.740;22.174;2022-12-18T12:53:50;42.35;;;19.23;;
50350;SDS011;36250;48.740;22.174;2022-12-18T12:56:18;39.75;;;20.08;;
50350;SDS011;36250;48.740;22.174;2022-12-18T13:01:53;36.20;;;18.85;;
50350;SDS011;36250;48.740;22.174;2022-12-18T13:04:36;41.00;;;20.25;;
50350;SDS011;36250;48.740;22.174;2022-12-18T13:07:23;55.42;;;30.77;;
50350;SDS011;36250;48.740;22.174;2022-12-18T13:12:50;38.22;;;18.83;;
50350;SDS011;36250;48.740;22.174;2022-12-18T13:15:25;40.58;;;19.75;;
50350;SDS011;36250;48.740;22.174;2022-12-18T13:20:33;44.20;;;20.38;;
50350;SDS011;36250;48.740;22.174;2022-12-18T13:23:01;40.97;;;19.85;;
50350;SDS011;36250;48.740;22.174;2022-12-18T13:25:52;36.63;;;16.52;;
50350;SDS011;36250;48.740;22.174;2022-12-18T13:34:19;33.72;;;17.88;;
50350;SDS011;36250;48.740;22.174;2022-12-18T13:36:46;42.13;;;23.02;;
50350;SDS011;36250;48.740;22.174;2022-12-18T13:41:46;48.92;;;30.08;;
50350;SDS011;36250;48.740;22.174;2022-12-18T13:44:29;62.88;;;39.28;;
50350;SDS011;36250;48.740;22.174;2022-12-18T13:47:04;33.50;;;20.15;;
50350;SDS011;36250;48.740;22.174;2022-12-18T13:49:36;42.70;;;24.40;;
50350;SDS011;36250;48.740;22.174;2022-12-18T13:52:23;30.45;;;16.30;;
50350;SDS011;36250;48.740;22.174;2022-12-18T13:54:51;37.72;;;19.25;;
50350;SDS011;36250;48.740;22.174;2022-12-18T13:57:32;36.92;;;18.40;;
50350;SDS011;36250;48.740;22.174;2022-12-18T14:00:14;35.35;;;20.60;;
50350;SDS011;36250;48.740;22.174;2022-12-18T14:02:53;62.92;;;31.63;;
50350;SDS011;36250;48.740;22.174;2022-12-18T14:07:53;73.25;;;35.78;;
50350;SDS011;36250;48.740;22.174;2022-12-18T14:10:19;89.00;;;44.25;;
50350;SDS011;36250;48.740;22.174;2022-12-18T14:12:49;64.35;;;32.00;;
50350;SDS011;36250;48.740;22.174;2022-12-18T14:17:47;32.83;;;15.10;;
50350;SDS011;36250;48.740;22.174;2022-12-18T14:20:13;74.53;;;37.30;;
50350;SDS011;36250;48.740;22.174;2022-12-18T14:22:42;39.85;;;20.58;;
50350;SDS011;36250;48.740;22.174;2022-12-18T14:25:24;37.17;;;16.45;;
50350;SDS011;36250;48.740;22.174;2022-12-18T14:30:35;33.20;;;17.52;;
50350;SDS011;36250;48.740;22.174;2022-12-18T14:33:11;29.73;;;13.80;;
50350;SDS011;36250;48.740;22.174;2022-12-18T14:35:42;55.03;;;29.65;;
50350;SDS011;36250;48.740;22.174;2022-12-18T14:38:20;36.58;;;18.25;;
50350;SDS011;36250;48.740;22.174;2022-12-18T14:41:10;47.92;;;21.63;;
50350;SDS011;36250;48.740;22.174;2022-12-18T14:43:38;133.93;;;66.60;;
50350;SDS011;36250;48.740;22.174;2022-12-18T14:46:05;67.60;;;32.13;;
50350;SDS011;36250;48.740;22.174;2022-12-18T14:48:51;43.67;;;21.95;;
50350;SDS011;36250;48.740;22.174;2022-12-18T14:51:18;42.20;;;19.80;;
50350;SDS011;36250;48.740;22.174;2022-12-18T14:56:35;51.47;;;22.05;;
50350;SDS011;36250;48.740;22.174;2022-12-18T14:59:03;55.70;;;27.15;;
50350;SDS011;36250;48.740;22.174;2022-12-18T15:04:23;63.85;;;26.73;;
50350;SDS011;36250;48.740;22.174;2022-12-18T15:07:02;54.78;;;23.02;;
50350;SDS011;36250;48.740;22.174;2022-12-18T15:09:39;70.45;;;26.45;;
50350;SDS011;36250;48.740;22.174;2022-12-18T15:12:26;67.15;;;28.50;;
50350;SDS011;36250;48.740;22.174;2022-12-18T15:14:58;58.08;;;24.95;;
50350;SDS011;36250;48.740;22.174;2022-12-18T15:17:23;49.72;;;21.88;;
50350;SDS011;36250;48.740;22.174;2022-12-18T15:19:50;43.17;;;19.55;;
50350;SDS011;36250;48.740;22.174;2022-12-18T15:22:26;39.15;;;18.60;;
50350;SDS011;36250;48.740;22.174;2022-12-18T15:24:54;42.75;;;18.45;;
50350;SDS011;36250;48.740;22.174;2022-12-18T15:32:34;42.53;;;18.17;;
50350;SDS011;36250;48.740;22.174;2022-12-18T15:35:12;56.38;;;21.73;;
50350;SDS011;36250;48.740;22.174;2022-12-18T15:37:40;48.88;;;21.90;;
50350;SDS011;36250;48.740;22.174;2022-12-18T15:40:06;62.28;;;25.90;;
50350;SDS011;36250;48.740;22.174;2022-12-18T15:42:36;55.75;;;25.55;;
50350;SDS011;36250;48.740;22.174;2022-12-18T15:45:20;50.20;;;22.40;;
50350;SDS011;36250;48.740;22.174;2022-12-18T15:47:45;43.40;;;20.40;;
50350;SDS011;36250;48.740;22.174;2022-12-18T15:50:10;44.10;;;19.98;;
50350;SDS011;36250;48.740;22.174;2022-12-18T15:52:39;45.50;;;21.38;;
50350;SDS011;36250;48.740;22.174;2022-12-18T15:55:17;53.60;;;22.67;;
50350;SDS011;36250;48.740;22.174;2022-12-18T15:58:06;45.47;;;20.83;;
50350;SDS011;36250;48.740;22.174;2022-12-18T16:00:33;41.60;;;19.13;;
50350;SDS011;36250;48.740;22.174;2022-12-18T16:03:01;36.45;;;18.25;;
50350;SDS011;36250;48.740;22.174;2022-12-18T16:05:27;41.08;;;18.30;;
50350;SDS011;36250;48.740;22.174;2022-12-18T16:07:54;36.92;;;17.17;;
50350;SDS011;36250;48.740;22.174;2022-12-18T16:10:20;35.90;;;16.35;;
50350;SDS011;36250;48.740;22.174;2022-12-18T16:12:46;34.22;;;16.77;;
50350;SDS011;36250;48.740;22.174;2022-12-18T16:15:12;36.13;;;17.95;;
50350;SDS011;36250;48.740;22.174;2022-12-18T16:17:40;45.50;;;20.92;;
50350;SDS011;36250;48.740;22.174;2022-12-18T16:20:18;46.05;;;20.50;;